Portada
METAR-TAF:

METAR-TAF

Aeroports :

Pécs, Hongria

latitud: 46-06N, longitud: 018-14E, altitud: 201 m

Observació

L'informe es va fer fa 40 minuts, a les 21:45 UTC
Vent 5 kt del Nord/Nord-Est
Temperatura 26°C
Humitat 70%
Pressió 1018 hPa
Visibilitat 10 km o més
sense núvols per sota de 1500 mi sense presència de cumulonimbus.

METAR: LHPP 182145Z AUTO 03005KT CAVOK 26/20 Q1018

Hora: 00:25 (22:25 UTC)

Pronòstic

L'informe es va fer fa 8 hores i 10 minuts, a les 14:15 UTC
Pronòstic vàlid del 18 a les 15 UTC al 18 a les 24 UTC
Vent 5 kt del Nord-Est
Visibilitat 10 km o més
sense núvols per sota de 1500 mi sense presència de cumulonimbus.
Probabilitat 30% :
Temporalment
l' 18 a les 15 UTC al 18 a les 18 UTC
Escasses núvols a una alçada de 5000 ft, Cumulonimbus.
Núvols disperses a una alçada de 7000 ft

TAF: LHPP 181415Z 1815/1824 04005KT CAVOK PROB30 TEMPO 1815/1818 FEW050CB SCT070

Observacions i pronòstics meteorològics de més de 4000 aeroports (METAR i TAF).

Les estacions disponibles són els punts grocs i vermells al mapa.

Posi el ratolí al punt desitjat per veure el nom de l'estació.

Feu clic per veure les observacions i els pronòstics meteorològics.

Per canviar el mapa: feu clic els botons verds amb una creu de color negre per apropar; al botó verd amb un guió per allunyar la imatge; o en les fletxes verdes per a mapes adjacents.


METAR-TAF: